Flight Track Log - Related Links

Times and Time Zones

All times are in EDT time to prevent confusion due to time zone crossing. See the SWA718 flight status page for this flight to view local times or setup timezone preferences in your user account.

Time Position Orientation Groundspeed Altitude Reporting Facility
EDT Latitude Longitude Course Direction KTS MPH feet Rate Location/Type
Mon 11:23:42 PM 41.7167 -87.7333 205° Southwest 248 285 4,900  Level Chicago TRACON
Mon 11:24:48 PM 41.7500 -87.8333 294° West 289 333 9,100 3,879 Climbing Chicago TRACON
Mon 11:25:38 PM 41.7878 -87.9089 304° West 289 333 12,400 2,054 Climbing Chicago Center
Mon 11:26:39 PM 41.8261 -88.0064 298° West 296 341 12,900 934 Climbing Chicago Center
Mon 11:27:40 PM 41.8267 -88.1183 270° West 299 344 14,300 1,082 Climbing Chicago Center
Mon 11:28:41 PM 41.8597 -88.2425 290° West 356 410 15,100 1,869 Climbing Chicago Center
Mon 11:29:42 PM 41.8961 -88.3669 291° West 362 417 18,100 3,000 Climbing Chicago Center
Mon 11:30:43 PM 41.9089 -88.5019 277° West 378 435 21,200 3,295 Climbing Chicago Center
Mon 11:31:44 PM 41.9003 -88.6717 266° West 383 441 24,800 2,951 Climbing Chicago Center
Mon 11:32:45 PM 41.8922 -88.8164 266° West 392 451 27,200 2,213 Climbing Chicago Center
Mon 11:33:46 PM 41.8847 -88.9672 266° West 405 466 29,300 2,361 Climbing Chicago Center
Mon 11:34:47 PM 41.8764 -89.1175 266° West 407 468 32,000 2,459 Climbing Chicago Center
Mon 11:35:48 PM 41.8681 -89.2661 266° West 405 466 34,300 1,967 Climbing Chicago Center
Mon 11:36:49 PM 41.8600 -89.4111 266° West 394 453 36,000 836 Climbing Chicago Center
Mon 11:37:50 PM 41.8517 -89.5556 266° West 389 448 36,000  Level Chicago Center
Mon 11:38:51 PM 41.8428 -89.6989 265° West 390 449 36,000  Level Chicago Center
Mon 11:39:52 PM 41.8342 -89.8450 266° West 394 453 36,000  Level Chicago Center
Mon 11:40:53 PM 41.8261 -89.9942 266° West 394 453 36,000  Level Chicago Center
Mon 11:41:54 PM 41.8178 -90.1375 266° West 390 449 36,000  Level Chicago Center
Mon 11:42:55 PM 41.8053 -90.3083 264° West 385 443 36,000  Level Chicago Center
Mon 11:43:56 PM 41.7917 -90.4508 263° West 403 464 36,000  Level Chicago Center
Mon 11:44:57 PM 41.7792 -90.5919 263° West 389 448 36,000  Level Chicago Center
Mon 11:45:58 PM 41.7664 -90.7378 263° West 384 442 36,000  Level Chicago Center
Mon 11:46:59 PM 41.7553 -90.8767 264° West 380 437 36,000  Level Chicago Center
Mon 11:47:59 PM 41.7436 -91.0167 264° West 381 438 36,000  Level Chicago Center
Mon 11:49:00 PM 41.7311 -91.1564 263° West 381 438 36,000  Level Chicago Center
Mon 11:50:01 PM 41.7189 -91.2944 263° West 377 434 36,000  Level Chicago Center
Mon 11:51:02 PM 41.7058 -91.4342 263° West 379 436 36,000  Level Chicago Center
Mon 11:52:03 PM 41.6931 -91.5742 263° West 381 438 36,000  Level Chicago Center
Mon 11:53:04 PM 41.6808 -91.7131 263° West 379 436 36,000  Level Chicago Center
Mon 11:54:05 PM 41.6650 -91.8786 263° West 376 433 36,000  Level Chicago Center
Mon 11:55:05 PM 41.6511 -92.0164 262° West 377 434 36,000  Level Chicago Center
Mon 11:56:06 PM 41.6375 -92.1511 262° West 372 428 36,000  Level Chicago Center
Mon 11:57:07 PM 41.6244 -92.2869 263° West 372 428 36,000  Level Chicago Center
Mon 11:58:08 PM 41.6103 -92.4242 262° West 374 430 36,000  Level Chicago Center
Mon 11:59:10 PM 41.5967 -92.5633 263° West 376 433 36,000  Level Chicago Center
Mon 11:59:43 PM 41.5886 -92.6556 263° West 374 430 36,000  Level Minneapolis Center
Tue 12:00:44 AM 41.5736 -92.7900 262° West 372 428 36,000  Level Minneapolis Center
Tue 12:01:45 AM 41.5606 -92.9244 263° West 370 426 36,000  Level Minneapolis Center
Tue 12:02:46 AM 41.5464 -93.0578 262° West 369 425 36,000  Level Minneapolis Center
Tue 12:03:47 AM 41.5317 -93.1933 262° West 371 427 36,000  Level Minneapolis Center
Tue 12:04:48 AM 41.5172 -93.3256 262° West 368 423 36,000  Level Minneapolis Center
Tue 12:05:49 AM 41.5056 -93.4336 262° West 369 425 36,000  Level Minneapolis Center
Tue 12:06:50 AM 41.4883 -93.5903 262° West 361 415 36,000  Level Minneapolis Center
Tue 12:07:51 AM 41.4714 -93.7508 262° West 365 420 36,000 -197 Level Minneapolis Center
Tue 12:08:52 AM 41.4550 -93.8828 261° West 365 420 35,600 -1,869 Descending Minneapolis Center
Tue 12:09:53 AM 41.4414 -94.0153 262° West 364 419 32,200 -3,541 Descending Minneapolis Center
Tue 12:10:54 AM 41.4261 -94.1517 262° West 371 427 28,400 -3,124 Descending Minneapolis Center
Tue 12:11:54 AM 41.4103 -94.2878 261° West 375 432 25,900 -2,281 Descending Minneapolis Center
Tue 12:12:55 AM 41.3928 -94.4122 259° West 361 415 23,800 -2,066 Descending Minneapolis Center
Tue 12:13:56 AM 41.3786 -94.5275 261° West 338 389 21,700 -2,016 Descending Minneapolis Center
Tue 12:14:57 AM 41.3683 -94.6408 263° West 318 366 19,700 -1,918 Descending Minneapolis Center
Tue 12:15:58 AM 41.3544 -94.7533 261° West 311 358 17,800 -2,360 Descending Minneapolis Center
Tue 12:16:26 AM 41.3583 -94.8314 274° West 316 364 16,200 -1,770 Descending Minneapolis Center
Tue 12:16:59 AM 41.3403 -94.8719 239° Southwest 320 368 16,000 -766 Descending Minneapolis Center
Tue 12:18:00 AM 41.3258 -94.9808 260° West 307 353 15,000 -1,525 Descending Minneapolis Center
Tue 12:18:57 AM 41.3200 -95.1086 267° West 291 335 13,000 -1,119 Descending Minneapolis Center
Tue 12:19:58 AM 41.3078 -95.1992 260° West 237 273 12,800 -1,357 Descending Minneapolis Center
Tue 12:20:52 AM 41.2886 -95.2819 253° West 253 291 10,400 -2,035 Descending Minneapolis Center
Tue 12:21:53 AM 41.2639 -95.3739 250° West 272 313 8,900 -1,525 Descending Minneapolis Center
Tue 12:22:54 AM 41.2408 -95.4656 252° West 261 300 7,300 -1,686 Descending Minneapolis Center
Tue 12:23:54 AM 41.2175 -95.5517 250° West 252 290 5,500 -1,934 Descending Minneapolis Center
Tue 12:24:55 AM 41.1753 -95.6369 237° Southwest 283 326 3,400 -1,289 Descending Minneapolis Center
Tue 12:25:55 AM 41.1519 -95.7228 250° West 242 278 2,900 -248 Descending Minneapolis Center
Tue 12:26:56 AM 41.1742 -95.7756 299° West 136 157 2,900 49 Level Minneapolis Center
Tue 12:27:57 AM 41.2056 -95.8053 325° Northwest 118 136 3,000 -198 Climbing Minneapolis Center
Tue 12:28:57 AM 41.2344 -95.8322 325° Northwest 121 139 2,500 -595 Descending Minneapolis Center
Tue 12:29:58 AM 41.2594 -95.8600 320° Northwest 119 137 1,800 -636 Descending Minneapolis Center
Tue 12:31:09 AM 41.2881 -95.8817 330° Northwest 120 138 1,100 -592 Descending Minneapolis Center
Tue 12:33:00 AM 41.3000 -95.8833 320° Northwest  Level FlightAware

Login

Don't have an account? Register now (free) for customized features, flight alerts, and more!